Time;durP1;ratioP1;P1;durP2;ratioP2;P2;SDS_P1;SDS_P2;PMS_P1;PMS_P2;Temp;Humidity;BMP_temperature;BMP_pressure;BME280_temperature;BME280_humidity;BME280_pressure;Samples;Min_cycle;Max_cycle;Signal;HPM_P1;HPM_P2
2022/10/25 00:02:19;;;;;;;3.97;0.60;;;12.20;99.90;;;11.68;100.00;97355.03;5032674;28;20053;-75
2022/10/25 00:04:46;;;;;;;;;;;12.30;99.90;;;11.81;100.00;97358.66;5038461;28;20060;-74
2022/10/25 00:07:13;;;;;;;4.53;0.70;;;12.40;99.90;;;11.65;100.00;97366.41;5037284;28;20081;-75
2022/10/25 00:09:41;;;;;;;4.38;0.60;;;12.40;99.90;;;11.70;100.00;97358.41;5037799;28;20057;-74
2022/10/25 00:12:08;;;;;;;5.85;0.70;;;12.30;99.90;;;11.70;100.00;97356.63;5036345;28;20048;-73
2022/10/25 00:14:35;;;;;;;8.23;0.77;;;12.30;99.90;;;11.66;100.00;97351.66;5034563;28;20513;-75
2022/10/25 00:17:02;;;;;;;2.40;0.70;;;12.30;99.90;;;11.76;100.00;97352.03;5035605;28;20075;-74
2022/10/25 00:19:29;;;;;;;7.85;0.60;;;12.30;99.90;;;11.70;100.00;97359.25;5038590;28;20432;-75
2022/10/25 00:21:56;;;;;;;4.18;0.60;;;12.30;99.90;;;11.64;100.00;97361.31;5037555;28;20052;-75
2022/10/25 00:24:22;;;;;;;5.65;0.80;;;12.30;99.90;;;11.73;100.00;97353.88;5038457;28;20050;-74
2022/10/25 00:26:49;;;;;;;5.78;0.70;;;12.40;99.90;;;11.73;100.00;97372.06;5036234;28;20049;-75
2022/10/25 00:29:17;;;;;;;7.95;0.80;;;12.40;99.90;;;11.62;100.00;97365.75;5049502;28;20594;-74
2022/10/25 00:31:44;;;;;;;7.82;0.68;;;12.50;99.90;;;11.71;100.00;97360.06;5033842;28;20102;-73
2022/10/25 00:34:10;;;;;;;4.53;0.60;;;12.40;99.90;;;11.67;100.00;97358.53;5034783;28;21473;-74
2022/10/25 00:36:37;;;;;;;4.90;0.60;;;12.30;99.90;;;11.72;100.00;97360.00;5032059;28;20053;-74
2022/10/25 00:39:04;;;;;;;4.05;0.70;;;12.30;99.90;;;11.59;100.00;97366.72;5032117;28;20407;-74
2022/10/25 00:41:33;;;;;;;6.55;0.68;;;12.20;99.90;;;11.67;100.00;97355.94;5032808;28;20056;-75
2022/10/25 00:44:37;;;;;;;8.45;0.90;;;12.10;99.90;;;11.58;100.00;97366.81;5035276;28;20232;-75
2022/10/25 00:47:19;;;;;;;6.35;0.95;;;12.10;99.90;;;11.56;100.00;97376.44;5036077;28;20045;-75
2022/10/25 00:49:59;;;;;;;4.13;0.60;;;12.00;99.90;;;11.49;100.00;97371.56;5039686;28;20049;-73
2022/10/25 00:52:31;;;;;;;4.78;0.80;;;12.00;99.90;;;11.45;100.00;97366.59;5040716;28;20041;-73
2022/10/25 00:54:59;;;;;;;5.15;0.70;;;12.00;99.90;;;11.49;100.00;97368.09;5039128;28;20045;-74
2022/10/25 00:57:52;;;;;;;3.92;0.60;;;12.00;99.90;;;11.56;100.00;97361.66;5040933;28;20370;-74
2022/10/25 01:00:19;;;;;;;9.27;0.70;;;12.10;99.90;;;11.54;100.00;97381.72;5037814;28;20057;-73
2022/10/25 01:02:47;;;;;;;4.22;0.73;;;12.20;99.90;;;11.63;100.00;97372.59;5039842;28;20130;-73
2022/10/25 01:05:16;;;;;;;5.78;0.70;;;12.20;99.90;;;11.70;100.00;97363.59;5036969;28;20848;-75
2022/10/25 01:07:43;;;;;;;3.08;0.70;;;12.30;99.90;;;11.75;100.00;97376.38;5033498;28;20502;-74
2022/10/25 01:10:11;;;;;;;4.50;0.70;;;12.30;99.90;;;11.73;100.00;97379.88;5034490;28;20060;-74
2022/10/25 01:12:38;;;;;;;4.30;0.70;;;12.30;99.90;;;11.76;100.00;97378.03;5042468;28;20730;-74
2022/10/25 01:15:06;;;;;;;4.20;0.80;;;12.40;99.90;;;11.73;100.00;97373.84;5037727;28;20052;-74
2022/10/25 01:17:54;;;;;;;4.72;0.90;;;12.40;99.90;;;11.79;100.00;97373.53;5042742;28;20056;-73
2022/10/25 01:21:05;;;;;;;8.05;1.10;;;12.40;99.90;;;11.84;100.00;97366.34;5040766;28;20422;-74
2022/10/25 01:23:47;;;;;;;6.40;0.68;;;12.50;99.90;;;11.90;100.00;97365.19;5032905;28;20056;-74
2022/10/25 01:26:58;;;;;;;4.47;0.70;;;12.50;99.90;;;11.86;100.00;97374.03;5038872;28;20055;-73
2022/10/25 01:29:58;;;;;;;6.55;0.80;;;12.50;99.90;;;11.86;100.00;97367.09;5038033;28;20060;-73
2022/10/25 01:32:31;;;;;;;4.45;0.88;;;12.60;99.90;;;11.91;100.00;97364.31;5037636;28;20045;-73
2022/10/25 01:35:28;;;;;;;4.85;0.80;;;12.50;99.90;;;11.91;100.00;97366.91;5034824;28;20068;-74
2022/10/25 01:38:37;;;;;;;6.88;1.00;;;12.50;99.90;;;11.97;100.00;97363.97;5036481;28;20044;-74
2022/10/25 01:41:26;;;;;;;6.25;1.10;;;12.50;99.90;;;11.97;100.00;97366.56;5036526;28;20052;-73
2022/10/25 01:44:41;;;;;;;2.85;0.65;;;12.50;99.90;;;11.90;100.00;97363.44;5037095;28;20049;-74
2022/10/25 01:47:20;;;;;;;6.40;0.70;;;12.50;99.90;;;12.00;100.00;97358.63;5045885;28;20406;-74
2022/10/25 01:50:02;;;;;;;5.03;0.63;;;12.50;99.90;;;11.98;100.00;97351.81;5036918;28;20059;-73
2022/10/25 01:52:29;;;;;;;6.28;0.90;;;12.50;99.90;;;11.90;100.00;97354.78;5037289;28;20072;-75
2022/10/25 01:54:56;;;;;;;9.00;1.00;;;12.50;99.90;;;11.84;100.00;97361.13;5035907;28;20050;-74
2022/10/25 01:57:44;;;;;;;10.38;1.13;;;12.50;99.90;;;11.75;100.00;97347.78;5034150;28;20045;-74
2022/10/25 02:00:19;;;;;;;4.50;0.82;;;12.40;99.90;;;11.72;100.00;97352.19;5034133;28;20529;-74
2022/10/25 02:03:20;;;;;;;6.70;1.10;;;12.40;99.90;;;11.72;100.00;97357.41;5032747;28;20132;-74
2022/10/25 02:06:21;;;;;;;5.18;0.85;;;12.30;99.90;;;11.64;100.00;97345.72;5033223;28;20061;-73
2022/10/25 02:08:58;;;;;;;5.13;0.70;;;12.30;99.90;;;11.74;100.00;97339.09;5035841;28;20144;-74
2022/10/25 02:11:28;;;;;;;6.53;0.93;;;12.30;99.90;;;11.72;100.00;97344.41;5041071;28;20057;-74
2022/10/25 02:14:37;;;;;;;3.63;0.82;;;12.20;99.90;;;11.67;100.00;97343.78;5034644;28;20052;-74
2022/10/25 02:17:18;;;;;;;6.13;0.77;;;12.20;99.90;;;11.70;100.00;97350.59;5031797;28;20053;-74
2022/10/25 02:19:58;;;;;;;4.18;0.70;;;12.20;99.90;;;11.72;100.00;97343.53;5040712;28;20502;-74
2022/10/25 02:22:31;;;;;;;10.18;0.80;;;12.30;99.90;;;11.63;100.00;97344.88;5035537;28;20526;-74
2022/10/25 02:25:00;;;;;;;5.38;0.70;;;12.20;99.90;;;11.61;100.00;97348.44;5033870;28;20471;-75
2022/10/25 02:27:28;;;;;;;7.95;0.90;;;12.30;99.90;;;11.63;100.00;97342.28;5040946;28;20051;-73
2022/10/25 02:29:57;;;;;;;6.82;1.13;;;12.30;99.90;;;11.68;100.00;97326.44;5039241;28;20071;-73
2022/10/25 02:32:24;;;;;;;5.20;0.90;;;12.20;99.90;;;11.64;100.00;97328.34;5041074;28;20452;-74
2022/10/25 02:34:51;;;;;;;4.75;0.70;;;12.20;99.90;;;11.57;100.00;97332.19;5034306;28;20053;-73
2022/10/25 02:37:18;;;;;;;9.27;0.85;;;12.20;99.90;;;11.54;100.00;97329.75;5035656;28;20057;-75
2022/10/25 02:39:45;;;;;;;6.82;0.82;;;12.10;99.90;;;11.60;100.00;97333.78;5035380;28;20060;-73
2022/10/25 02:42:12;;;;;;;9.48;0.93;;;12.10;99.90;;;11.59;100.00;97327.75;5047474;28;21960;-75
2022/10/25 02:44:39;;;;;;;7.07;0.70;;;12.10;99.90;;;11.48;100.00;97327.44;5038924;28;20041;-73
2022/10/25 02:47:06;;;;;;;5.03;0.90;;;12.00;99.90;;;11.41;100.00;97329.50;5034090;28;20046;-73
2022/10/25 02:49:33;;;;;;;5.63;0.80;;;12.00;99.90;;;11.44;100.00;97325.91;5034462;28;20056;-73
2022/10/25 02:51:59;;;;;;;6.68;1.00;;;12.00;99.90;;;11.53;100.00;97325.44;5033513;28;20041;-74
2022/10/25 02:54:26;;;;;;;6.28;0.85;;;12.00;99.90;;;11.51;100.00;97324.69;5037631;28;20514;-74
2022/10/25 02:56:53;;;;;;;9.63;1.52;;;12.00;99.90;;;11.62;100.00;97332.78;5033590;28;20056;-74
2022/10/25 02:59:20;;;;;;;5.53;0.70;;;12.00;99.90;;;11.58;100.00;97326.03;5034326;28;20063;-73
2022/10/25 03:01:48;;;;;;;7.68;0.85;;;12.00;99.90;;;11.57;100.00;97333.94;5036479;28;20100;-73
2022/10/25 03:04:15;;;;;;;8.27;0.90;;;12.00;99.90;;;11.51;100.00;97329.88;5047739;28;20048;-74
2022/10/25 03:06:42;;;;;;;4.85;0.70;;;12.00;99.90;;;11.55;100.00;97335.78;5040559;28;20477;-74
2022/10/25 03:09:09;;;;;;;6.07;1.00;;;12.10;99.90;;;11.58;100.00;97327.81;5032502;28;20498;-74
2022/10/25 03:11:35;;;;;;;8.32;0.90;;;12.10;99.90;;;11.48;100.00;97324.84;5034661;28;20049;-75
2022/10/25 03:14:02;;;;;;;5.78;0.90;;;12.10;99.90;;;11.47;100.00;97329.22;5032589;28;20045;-75
2022/10/25 03:16:29;;;;;;;11.60;1.30;;;12.10;99.90;;;11.44;100.00;97331.94;5034891;28;20574;-74
2022/10/25 03:18:57;;;;;;;7.50;0.98;;;12.00;99.90;;;11.43;100.00;97329.44;5036092;28;20064;-74
2022/10/25 03:21:25;;;;;;;6.45;1.08;;;12.10;99.90;;;11.50;100.00;97339.44;5034621;28;20056;-74
2022/10/25 03:23:52;;;;;;;6.60;0.98;;;12.10;99.90;;;11.41;100.00;97334.69;5039975;28;20057;-74
2022/10/25 03:26:19;;;;;;;7.10;0.85;;;12.10;99.90;;;11.49;100.00;97339.50;5033771;28;20119;-74
2022/10/25 03:28:45;;;;;;;8.30;0.95;;;12.10;99.90;;;11.44;100.00;97344.94;5034575;28;20365;-74
2022/10/25 03:31:15;;;;;;;5.93;1.10;;;12.10;99.90;;;11.54;100.00;97341.88;5038407;28;20045;-73
2022/10/25 03:33:43;;;;;;;8.00;0.93;;;12.10;99.90;;;11.57;100.00;97341.75;5037008;28;20052;-73
2022/10/25 03:36:10;;;;;;;8.88;0.85;;;12.10;99.90;;;11.62;100.00;97334.53;5047159;28;20405;-74
2022/10/25 03:38:37;;;;;;;6.55;1.02;;;12.10;99.90;;;11.61;100.00;97346.72;5038963;28;20156;-76
2022/10/25 03:41:04;;;;;;;8.93;1.42;;;12.10;99.90;;;11.64;100.00;97345.72;5052284;28;20049;-74
2022/10/25 03:43:31;;;;;;;6.75;0.90;;;12.20;99.90;;;11.71;100.00;97340.09;5038344;28;20048;-75
2022/10/25 03:45:58;;;;;;;7.20;0.75;;;12.20;99.90;;;11.71;100.00;97347.91;5035591;28;20064;-74
2022/10/25 03:48:25;;;;;;;8.75;0.85;;;12.30;99.90;;;11.70;100.00;97341.03;5038036;28;20084;-74
2022/10/25 03:50:53;;;;;;;4.93;0.80;;;12.30;99.90;;;11.81;100.00;97347.44;5038033;28;20048;-74
2022/10/25 03:53:20;;;;;;;6.03;0.88;;;12.40;99.90;;;11.73;100.00;97345.25;5041162;28;20045;-74
2022/10/25 03:55:48;;;;;;;8.23;1.08;;;12.40;99.90;;;11.77;100.00;97348.50;5039189;28;20045;-75
2022/10/25 03:58:16;;;;;;;9.85;0.95;;;12.40;99.90;;;11.76;100.00;97357.25;5036193;28;20073;-74
2022/10/25 04:00:43;;;;;;;5.32;0.90;;;12.50;99.90;;;11.82;100.00;97344.75;5043528;28;20136;-74
2022/10/25 04:03:10;;;;;;;5.43;0.77;;;12.50;99.90;;;11.88;100.00;97347.09;5036557;28;20048;-75
2022/10/25 04:05:37;;;;;;;5.28;0.98;;;12.50;99.90;;;11.91;100.00;97349.53;5036363;28;20068;-75
2022/10/25 04:08:04;;;;;;;7.20;0.82;;;12.50;99.90;;;11.96;100.00;97344.09;5040652;28;20052;-75
2022/10/25 04:10:32;;;;;;;6.93;1.25;;;12.60;99.90;;;11.88;100.00;97344.50;5037460;28;20056;-74
2022/10/25 04:12:59;;;;;;;8.02;0.88;;;12.60;99.90;;;11.90;100.00;97339.19;5036825;28;20037;-74
2022/10/25 04:15:26;;;;;;;4.82;0.80;;;12.60;99.90;;;12.08;100.00;97332.19;5034638;28;20049;-75
2022/10/25 04:17:53;;;;;;;6.53;1.00;;;12.60;99.90;;;11.98;100.00;97331.84;5041194;28;20057;-75
2022/10/25 04:20:21;;;;;;;7.03;0.90;;;12.60;99.90;;;12.05;100.00;97330.59;5038822;28;20064;-75
2022/10/25 04:22:57;;;;;;;8.18;1.30;;;12.60;99.90;;;11.98;100.00;97336.22;5040894;28;20065;-77
2022/10/25 04:25:26;;;;;;;8.98;0.80;;;12.60;99.90;;;11.98;100.00;97339.66;5037508;28;20057;-74
2022/10/25 04:27:54;;;;;;;10.77;1.17;;;12.70;99.90;;;12.07;100.00;97335.72;5048818;28;20048;-75
2022/10/25 04:30:21;;;;;;;11.45;1.20;;;12.70;99.90;;;11.97;100.00;97340.56;5048377;28;20052;-75
2022/10/25 04:32:48;;;;;;;7.47;1.10;;;12.70;99.90;;;11.97;100.00;97345.75;5049946;28;20053;-75
2022/10/25 04:35:16;;;;;;;9.45;1.27;;;12.80;99.90;;;11.96;100.00;97348.47;5046193;28;20060;-75
2022/10/25 04:37:43;;;;;;;11.05;1.17;;;12.70;99.90;;;11.97;100.00;97342.31;5046934;28;20057;-75
2022/10/25 04:40:10;;;;;;;7.05;1.00;;;12.70;99.90;;;11.93;100.00;97347.69;5039810;28;20053;-74
2022/10/25 04:42:37;;;;;;;13.98;1.48;;;12.70;99.90;;;11.95;100.00;97354.56;5034459;28;20056;-75
2022/10/25 04:45:05;;;;;;;8.50;1.00;;;12.70;99.90;;;11.96;100.00;97356.25;5037167;28;20110;-75
2022/10/25 04:47:32;;;;;;;10.73;1.10;;;12.70;99.90;;;12.00;100.00;97355.19;5040051;28;20049;-74
2022/10/25 04:50:00;;;;;;;7.53;1.42;;;12.70;99.90;;;12.02;100.00;97348.97;5037012;28;20056;-74
2022/10/25 04:52:30;;;;;;;6.00;1.00;;;12.70;99.90;;;12.04;100.00;97351.47;5050384;28;20065;-75
2022/10/25 04:54:58;;;;;;;8.45;1.00;;;12.70;99.90;;;12.04;100.00;97351.47;5039511;28;20812;-75
2022/10/25 04:57:25;;;;;;;10.18;0.93;;;12.70;99.90;;;12.09;100.00;97354.72;5035362;28;20433;-74
2022/10/25 04:59:52;;;;;;;7.72;1.08;;;12.70;99.90;;;12.04;100.00;97360.16;5038906;28;20057;-74
2022/10/25 05:02:19;;;;;;;13.93;0.98;;;12.70;99.90;;;12.09;100.00;97352.09;5035350;28;20577;-74
2022/10/25 05:04:46;;;;;;;9.90;1.15;;;12.70;99.90;;;11.97;100.00;97363.13;5034984;28;20045;-74
2022/10/25 05:07:16;;;;;;;7.75;1.02;;;12.70;99.90;;;12.03;100.00;97358.44;5041021;28;20148;-76
2022/10/25 05:09:43;;;;;;;7.43;1.33;;;12.70;99.90;;;12.07;100.00;97362.59;5039196;28;20452;-76
2022/10/25 05:12:13;;;;;;;11.95;1.42;;;12.70;99.90;;;11.96;100.00;97362.28;5037744;28;20045;-75
2022/10/25 05:14:40;;;;;;;9.93;1.17;;;12.70;99.90;;;11.84;100.00;97361.13;5035302;28;20041;-74
2022/10/25 05:17:07;;;;;;;8.48;1.20;;;12.60;99.90;;;11.73;100.00;97366.03;5036336;28;20091;-74
2022/10/25 05:19:34;;;;;;;13.55;2.95;;;12.40;99.90;;;11.73;100.00;97361.69;5036471;28;20049;-75
2022/10/25 05:22:01;;;;;;;16.60;3.75;;;12.30;99.90;;;11.73;100.00;97355.63;5035934;28;20088;-74
2022/10/25 05:24:28;;;;;;;12.60;2.00;;;12.20;99.90;;;11.68;100.00;97368.03;5033992;28;20055;-74
2022/10/25 05:26:54;;;;;;;13.82;1.52;;;12.20;99.90;;;11.67;100.00;97359.38;5040203;28;20049;-74
2022/10/25 05:29:21;;;;;;;11.20;1.55;;;12.20;99.90;;;11.65;100.00;97362.97;5040189;28;20053;-74
2022/10/25 05:31:48;;;;;;;8.60;1.10;;;12.20;99.90;;;11.67;100.00;97363.75;5039225;28;20049;-74
2022/10/25 05:34:15;;;;;;;9.27;1.23;;;12.10;99.90;;;11.65;100.00;97373.38;5034940;28;20045;-76
2022/10/25 05:36:42;;;;;;;9.73;1.20;;;12.20;99.90;;;11.70;100.00;97374.00;5037399;28;20041;-74
2022/10/25 05:39:09;;;;;;;9.18;1.70;;;12.10;99.90;;;11.63;100.00;97377.81;5037718;28;20630;-74
2022/10/25 05:41:36;;;;;;;9.32;1.40;;;12.10;99.90;;;11.70;100.00;97377.44;5035916;28;20089;-74
2022/10/25 05:44:04;;;;;;;8.20;1.38;;;12.10;99.90;;;11.58;100.00;97393.63;5038234;28;20407;-74
2022/10/25 05:46:31;;;;;;;10.95;1.58;;;12.10;99.90;;;11.65;100.00;97378.56;5040580;28;20049;-74
2022/10/25 05:48:59;;;;;;;7.40;1.00;;;12.10;99.90;;;11.54;100.00;97386.94;5035053;28;20049;-73
2022/10/25 05:51:31;;;;;;;5.15;1.10;;;12.10;99.90;;;11.61;100.00;97379.63;5037812;28;20057;-74
2022/10/25 05:54:14;;;;;;;8.95;1.00;;;12.10;99.90;;;11.65;100.00;97374.22;5039909;28;20050;-75
2022/10/25 05:56:41;;;;;;;8.73;1.15;;;12.10;99.90;;;11.68;100.00;97381.03;5036906;28;20068;-74
2022/10/25 05:59:13;;;;;;;11.57;1.23;;;12.10;99.90;;;11.64;100.00;97369.94;5041820;28;20072;-73
2022/10/25 06:01:43;;;;;;;8.98;1.20;;;12.10;99.90;;;11.56;100.00;97385.06;5037528;28;20072;-74
2022/10/25 06:04:11;;;;;;;8.73;1.38;;;12.10;99.90;;;11.54;100.00;97386.06;5035828;28;20143;-74
2022/10/25 06:06:40;;;;;;;4.90;1.33;;;12.10;99.90;;;11.60;100.00;97388.38;5036590;28;20122;-74
2022/10/25 06:09:09;;;;;;;13.23;1.60;;;12.10;99.90;;;11.55;100.00;97395.56;5037206;28;20056;-73
2022/10/25 06:11:37;;;;;;;14.13;1.80;;;12.20;99.90;;;11.65;100.00;97395.00;5038796;28;20054;-74
2022/10/25 06:14:05;;;;;;;6.57;1.00;;;12.10;99.90;;;11.67;100.00;97400.13;5037829;28;20060;-74
2022/10/25 06:16:32;;;;;;;13.80;1.60;;;12.20;99.90;;;11.71;100.00;97397.31;5030383;28;20045;-74
2022/10/25 06:18:59;;;;;;;6.28;1.00;;;12.20;99.90;;;11.70;100.00;97393.03;5041434;28;20045;-75
2022/10/25 06:21:28;;;;;;;10.05;1.20;;;12.20;99.90;;;11.61;100.00;97405.63;5034942;28;20055;-74
2022/10/25 06:23:57;;;;;;;14.35;2.10;;;12.20;99.90;;;11.60;100.00;97402.19;5035406;28;20064;-74
2022/10/25 06:26:27;;;;;;;8.38;1.30;;;12.30;99.90;;;11.62;100.00;97409.94;5033285;28;20057;-74
2022/10/25 06:29:01;;;;;;;10.43;1.38;;;12.40;99.90;;;11.75;100.00;97410.19;5047692;28;20050;-75
2022/10/25 06:31:29;;;;;;;10.65;1.70;;;12.30;99.90;;;11.77;100.00;97411.78;5049100;28;20048;-75
2022/10/25 06:33:59;;;;;;;8.27;1.02;;;12.30;99.90;;;11.83;100.00;97408.00;5035014;28;20053;-75
2022/10/25 06:36:27;;;;;;;6.68;1.00;;;12.30;99.90;;;11.82;100.00;97409.78;5036296;28;20053;-74
2022/10/25 06:38:53;;;;;;;9.05;1.23;;;12.40;99.90;;;11.80;100.00;97409.00;5033624;28;20101;-74
2022/10/25 06:41:24;;;;;;;8.75;1.40;;;12.40;99.90;;;11.79;100.00;97419.47;5036571;28;20045;-74
2022/10/25 06:43:51;;;;;;;10.15;1.63;;;12.40;99.90;;;11.86;100.00;97418.25;5037142;28;20083;-74
2022/10/25 06:46:26;;;;;;;10.85;1.27;;;12.50;99.90;;;11.81;100.00;97420.25;5033622;28;20049;-74
2022/10/25 06:48:56;;;;;;;11.60;1.38;;;12.40;99.90;;;11.67;100.00;97424.38;5034817;28;20045;-74
2022/10/25 06:51:25;;;;;;;11.45;1.60;;;12.40;99.90;;;11.80;100.00;97426.38;5035646;28;20100;-74
2022/10/25 06:53:58;;;;;;;8.25;1.42;;;12.40;99.90;;;11.73;100.00;97434.47;5034294;28;20367;-74
2022/10/25 06:56:26;;;;;;;10.55;1.77;;;12.40;99.90;;;11.50;100.00;97440.81;5034906;28;20057;-74
2022/10/25 06:58:54;;;;;;;12.18;1.70;;;12.40;99.90;;;11.54;100.00;97445.84;5034851;28;20057;-73
2022/10/25 07:01:23;;;;;;;9.15;1.60;;;12.40;99.90;;;11.64;100.00;97436.69;5034235;28;20052;-75
2022/10/25 07:03:52;;;;;;;7.43;1.10;;;12.30;99.90;;;11.68;100.00;97440.84;5035449;28;20060;-75
2022/10/25 07:06:28;;;;;;;8.32;1.30;;;12.20;99.90;;;11.70;100.00;97444.22;5031830;28;20529;-74
2022/10/25 07:08:59;;;;;;;13.77;1.77;;;12.30;99.90;;;11.63;100.00;97440.19;5028446;28;20041;-74
2022/10/25 07:11:28;;;;;;;8.98;1.58;;;12.30;99.90;;;11.66;100.00;97443.50;5045325;28;20045;-74
2022/10/25 07:13:57;;;;;;;11.18;1.58;;;12.30;99.90;;;11.56;100.00;97439.66;5034919;28;20435;-74
2022/10/25 07:16:26;;;;;;;9.20;1.35;;;12.30;99.90;;;11.69;100.00;97439.91;5036038;28;20053;-74
2022/10/25 07:18:58;;;;;;;9.82;1.30;;;12.30;99.90;;;11.79;100.00;97429.88;5038400;28;20069;-74
2022/10/25 07:21:25;;;;;;;7.30;1.15;;;12.30;99.90;;;11.91;100.00;97439.72;5051352;28;20161;-74
2022/10/25 07:23:53;;;;;;;7.07;1.00;;;12.40;99.90;;;11.92;100.00;97441.41;5029366;28;20068;-73
2022/10/25 07:26:29;;;;;;;7.38;1.48;;;12.40;99.90;;;11.95;100.00;97449.06;5032094;28;20052;-74
2022/10/25 07:28:59;;;;;;;7.68;1.40;;;12.40;99.90;;;11.93;100.00;97446.53;5036336;28;20053;-74
2022/10/25 07:31:33;;;;;;;12.30;1.67;;;12.40;99.90;;;11.92;100.00;97439.63;5038932;28;20444;-73
2022/10/25 07:34:02;;;;;;;12.88;1.63;;;12.40;99.90;;;11.92;100.00;97446.59;5040331;28;20051;-74
2022/10/25 07:36:29;;;;;;;14.43;1.75;;;12.50;99.90;;;11.97;100.00;97441.16;5032641;28;20051;-74
2022/10/25 07:38:56;;;;;;;9.73;1.50;;;12.50;99.90;;;11.90;100.00;97445.81;5034536;28;20057;-75
2022/10/25 07:41:25;;;;;;;11.50;1.48;;;12.50;99.90;;;12.08;100.00;97444.91;5032139;28;20424;-74
2022/10/25 07:43:52;;;;;;;12.20;1.90;;;12.50;99.90;;;11.88;100.00;97456.31;5029415;28;20162;-75
2022/10/25 07:46:18;;;;;;;9.02;1.10;;;12.50;99.90;;;11.86;100.00;97460.72;5028316;28;20050;-75
2022/10/25 07:48:45;;;;;;;11.73;1.70;;;12.50;99.90;;;11.93;100.00;97456.94;5031190;28;20147;-73
2022/10/25 07:51:15;;;;;;;9.70;1.60;;;12.60;99.90;;;11.91;100.00;97463.97;5031809;28;20733;-74
2022/10/25 07:53:42;;;;;;;6.70;1.25;;;12.70;99.90;;;11.93;100.00;97459.53;5033811;28;20518;-74
2022/10/25 07:56:15;;;;;;;11.60;1.60;;;12.70;99.90;;;11.87;100.00;97465.03;5032152;28;20053;-74
2022/10/25 07:58:48;;;;;;;12.95;1.83;;;12.70;99.90;;;11.91;100.00;97465.72;5035426;28;20093;-74
2022/10/25 08:01:21;;;;;;;8.90;1.10;;;12.70;99.90;;;12.05;100.00;97468.47;5036646;28;20057;-75
2022/10/25 08:03:52;;;;;;;7.85;1.30;;;12.80;99.90;;;12.11;100.00;97469.91;5032709;28;20066;-74
2022/10/25 08:06:24;;;;;;;12.05;1.27;;;12.80;99.90;;;12.20;100.00;97473.81;5033554;28;20546;-74
2022/10/25 08:08:51;;;;;;;11.05;1.55;;;12.90;99.90;;;12.27;100.00;97469.97;5036392;28;20045;-74
2022/10/25 08:11:18;;;;;;;8.35;1.60;;;13.00;99.90;;;12.30;100.00;97467.25;5033886;28;20140;-74
2022/10/25 08:13:48;;;;;;;11.27;1.50;;;13.00;99.90;;;12.34;100.00;97471.38;5032760;28;20083;-73
2022/10/25 08:16:15;;;;;;;11.15;1.50;;;13.10;99.90;;;12.40;100.00;97478.00;5034408;28;20465;-74
2022/10/25 08:18:43;;;;;;;8.15;1.30;;;13.20;99.90;;;12.43;100.00;97468.28;5047810;28;20053;-74
2022/10/25 08:21:10;;;;;;;9.20;1.75;;;13.20;99.90;;;12.31;100.00;97467.13;5039318;28;20062;-74
2022/10/25 08:23:37;;;;;;;9.85;1.40;;;13.30;99.90;;;12.49;100.00;97464.53;5038399;28;20044;-73
2022/10/25 08:26:04;;;;;;;8.25;1.50;;;13.40;99.90;;;12.62;100.00;97462.97;5038376;28;20481;-74
2022/10/25 08:28:31;;;;;;;12.85;1.17;;;13.50;99.90;;;12.80;100.00;97465.53;5051122;28;20565;-74
2022/10/25 08:30:59;;;;;;;11.82;1.55;;;13.60;99.90;;;13.01;100.00;97461.75;5038705;28;20049;-74
2022/10/25 08:33:28;;;;;;;10.02;1.38;;;13.80;99.90;;;13.12;100.00;97464.63;5035055;28;20049;-75
2022/10/25 08:35:55;;;;;;;12.60;1.60;;;13.80;99.90;;;12.84;100.00;97467.03;5043225;28;20054;-74
2022/10/25 08:38:21;;;;;;;7.90;1.20;;;13.90;99.90;;;13.12;100.00;97472.44;5037872;28;20061;-75
2022/10/25 08:41:17;;;;;;;10.98;1.70;;;13.90;99.90;;;13.02;100.00;97473.00;5034664;28;20502;-74
2022/10/25 08:44:32;;;;;;;7.30;1.50;;;13.90;99.90;;;12.86;100.00;97467.78;5042646;28;20719;-74
2022/10/25 08:47:18;;;;;;;7.60;1.25;;;13.90;99.90;;;12.96;100.00;97463.78;5036652;28;20045;-74
2022/10/25 08:50:02;;;;;;;13.30;2.35;;;13.90;99.90;;;12.86;100.00;97478.19;5042150;28;20056;-74
2022/10/25 08:52:40;;;;;;;14.85;2.15;;;13.80;99.90;;;12.96;100.00;97474.19;5042883;28;20072;-74
2022/10/25 08:55:31;;;;;;;9.00;1.42;;;13.90;99.90;;;13.26;100.00;97468.22;5036379;28;20068;-74
2022/10/25 08:58:01;;;;;;;9.55;1.30;;;14.10;99.90;;;13.15;100.00;97468.81;5039854;28;20131;-74
2022/10/25 09:00:36;;;;;;;12.40;1.75;;;14.20;99.90;;;13.30;100.00;97462.81;5040178;28;20064;-74
2022/10/25 09:03:04;;;;;;;11.68;1.35;;;14.40;99.90;;;13.30;100.00;97477.59;5036017;28;20052;-74
2022/10/25 09:06:03;;;;;;;7.82;1.13;;;14.60;99.90;;;13.23;100.00;97482.28;5032042;28;20048;-74
2022/10/25 09:08:52;;;;;;;10.10;1.25;;;14.80;99.90;;;13.46;100.00;97473.22;5030004;28;20049;-75
2022/10/25 09:11:21;;;;;;;11.57;1.10;;;14.80;99.90;;;13.59;100.00;97471.59;5033825;28;20049;-75
2022/10/25 09:14:01;;;;;;;9.07;1.25;;;14.80;99.90;;;13.60;100.00;97473.28;5036782;28;20067;-74
2022/10/25 09:16:41;;;;;;;10.18;1.73;;;14.80;99.90;;;13.30;100.00;97491.47;5033135;28;20048;-73
2022/10/25 09:19:17;;;;;;;9.60;1.30;;;14.80;99.90;;;13.44;100.00;97480.28;5047803;28;20052;-74
2022/10/25 09:21:59;;;;;;;10.07;1.38;;;14.70;99.90;;;13.68;100.00;97479.81;5040002;28;20515;-74
2022/10/25 09:24:54;;;;;;;12.60;1.83;;;14.60;99.90;;;13.60;100.00;97478.50;5019443;28;20246;-73
2022/10/25 09:27:38;;;;;;;9.90;1.00;;;14.70;99.90;;;13.62;100.00;97491.44;5031160;28;20053;-73
2022/10/25 09:30:09;;;;;;;11.80;1.45;;;14.70;99.90;;;13.54;100.00;97488.41;5034639;28;20045;-75
2022/10/25 09:32:50;;;;;;;9.98;1.48;;;14.90;99.90;;;13.84;100.00;97485.00;5031878;28;20049;-74
2022/10/25 09:35:25;;;;;;;10.02;1.35;;;14.90;99.90;;;13.69;100.00;97492.78;5018918;28;20041;-74
2022/10/25 09:38:11;;;;;;;11.82;1.65;;;14.80;99.90;;;14.12;100.00;97490.31;5032565;28;20061;-75
2022/10/25 09:40:46;;;;;;;14.13;1.55;;;14.90;99.90;;;13.67;100.00;97501.63;5032527;28;20176;-75
2022/10/25 09:43:20;;;;;;;7.30;1.48;;;15.00;99.90;;;13.86;100.00;97498.81;5033342;28;20044;-74
2022/10/25 09:45:56;;;;;;;9.77;1.15;;;14.90;99.90;;;14.05;100.00;97499.44;5034126;28;20372;-74
2022/10/25 09:48:47;;;;;;;10.68;1.50;;;14.90;99.90;;;13.60;100.00;97508.94;5030452;28;20049;-74
2022/10/25 09:51:23;;;;;;;8.40;1.00;;;14.90;99.90;;;13.58;100.00;97509.03;5030475;28;20049;-75
2022/10/25 09:53:51;;;;;;;6.45;0.82;;;14.90;99.90;;;13.50;100.00;97506.03;5045968;28;20060;-74
2022/10/25 09:56:18;;;;;;;9.57;1.27;;;14.80;99.90;;;13.62;100.00;97499.28;5031978;28;20680;-75
2022/10/25 09:58:46;;;;;;;7.25;0.85;;;14.80;99.90;;;13.59;100.00;97513.34;5030029;28;20053;-74
2022/10/25 10:01:23;;;;;;;4.82;1.00;;;14.70;99.90;;;13.60;100.00;97520.22;5032412;28;20053;-74
2022/10/25 10:03:50;;;;;;;6.30;0.90;;;14.60;99.90;;;13.71;100.00;97521.41;5027740;28;21938;-74
2022/10/25 10:06:30;;;;;;;10.18;0.90;;;14.60;99.90;;;13.67;100.00;97530.31;5032717;28;20132;-75
2022/10/25 10:09:05;;;;;;;8.10;1.25;;;14.70;99.90;;;13.72;100.00;97533.50;5046643;28;20582;-73
2022/10/25 10:11:33;;;;;;;7.10;1.30;;;14.90;99.90;;;13.68;100.00;97534.59;5035329;28;20045;-74
2022/10/25 10:14:37;;;;;;;3.58;0.80;;;15.10;99.90;;;13.80;100.00;97546.97;5046010;28;20071;-74
2022/10/25 10:17:10;;;;;;;9.57;0.98;;;15.10;99.90;;;14.12;100.00;97554.75;5034297;28;20072;-76
2022/10/25 10:19:39;;;;;;;5.80;0.82;;;15.30;99.90;;;14.56;100.00;97543.50;5037410;28;20103;-75
2022/10/25 10:22:12;;;;;;;4.53;0.73;;;15.50;99.90;;;14.36;100.00;97566.34;5030665;28;20049;-74
2022/10/25 10:24:42;;;;;;;7.28;1.25;;;15.50;99.90;;;14.10;100.00;97567.03;5035154;28;20114;-75
2022/10/25 10:27:28;;;;;;;6.28;1.10;;;15.40;99.90;;;13.91;100.00;97556.78;5026563;28;20060;-76
2022/10/25 10:30:24;;;;;;;6.78;0.90;;;15.40;99.90;;;13.91;100.00;97556.78;5031956;28;20045;-73
2022/10/25 10:33:00;;;;;;;7.05;0.90;;;15.50;99.90;;;13.98;100.00;97568.56;5031226;28;20056;-75